sensor_id;sensor_type;location;lat;lon;timestamp;P1;durP1;ratioP1;P2;durP2;ratioP2
6987;SDS011;3534;49.960;8.018;2023-09-12T00:02:23;10.50;;;4.97;;
6987;SDS011;3534;49.960;8.018;2023-09-12T00:04:49;15.03;;;5.83;;
6987;SDS011;3534;49.960;8.018;2023-09-12T00:07:16;8.40;;;5.80;;
6987;SDS011;3534;49.960;8.018;2023-09-12T00:09:43;15.67;;;5.73;;
6987;SDS011;3534;49.960;8.018;2023-09-12T00:12:12;11.90;;;5.83;;
6987;SDS011;3534;49.960;8.018;2023-09-12T00:14:42;13.37;;;5.90;;
6987;SDS011;3534;49.960;8.018;2023-09-12T00:17:09;10.33;;;5.90;;
6987;SDS011;3534;49.960;8.018;2023-09-12T00:19:35;13.20;;;6.37;;
6987;SDS011;3534;49.960;8.018;2023-09-12T00:22:02;11.60;;;5.73;;
6987;SDS011;3534;49.960;8.018;2023-09-12T00:24:29;12.93;;;6.33;;
6987;SDS011;3534;49.960;8.018;2023-09-12T00:26:56;14.87;;;5.77;;
6987;SDS011;3534;49.960;8.018;2023-09-12T00:29:23;10.50;;;5.70;;
6987;SDS011;3534;49.960;8.018;2023-09-12T00:31:51;15.13;;;6.23;;
6987;SDS011;3534;49.960;8.018;2023-09-12T00:34:17;13.43;;;7.00;;
6987;SDS011;3534;49.960;8.018;2023-09-12T00:36:44;14.70;;;7.20;;
6987;SDS011;3534;49.960;8.018;2023-09-12T00:39:11;13.23;;;6.90;;
6987;SDS011;3534;49.960;8.018;2023-09-12T00:41:38;10.00;;;6.20;;
6987;SDS011;3534;49.960;8.018;2023-09-12T00:44:05;11.23;;;6.87;;
6987;SDS011;3534;49.960;8.018;2023-09-12T00:46:32;17.90;;;6.27;;
6987;SDS011;3534;49.960;8.018;2023-09-12T00:49:01;13.17;;;6.13;;
6987;SDS011;3534;49.960;8.018;2023-09-12T00:51:32;14.97;;;6.73;;
6987;SDS011;3534;49.960;8.018;2023-09-12T00:54:00;15.37;;;5.87;;
6987;SDS011;3534;49.960;8.018;2023-09-12T00:56:27;13.80;;;6.60;;
6987;SDS011;3534;49.960;8.018;2023-09-12T00:58:55;15.70;;;6.50;;
6987;SDS011;3534;49.960;8.018;2023-09-12T01:01:22;14.90;;;6.30;;
6987;SDS011;3534;49.960;8.018;2023-09-12T01:03:50;20.77;;;7.10;;
6987;SDS011;3534;49.960;8.018;2023-09-12T01:06:19;17.40;;;6.97;;
6987;SDS011;3534;49.960;8.018;2023-09-12T01:08:47;9.57;;;5.90;;
6987;SDS011;3534;49.960;8.018;2023-09-12T01:11:14;13.87;;;6.30;;
6987;SDS011;3534;49.960;8.018;2023-09-12T01:13:43;22.83;;;6.30;;
6987;SDS011;3534;49.960;8.018;2023-09-12T01:16:10;14.03;;;6.50;;
6987;SDS011;3534;49.960;8.018;2023-09-12T01:18:36;11.87;;;6.57;;
6987;SDS011;3534;49.960;8.018;2023-09-12T01:21:12;19.30;;;6.47;;
6987;SDS011;3534;49.960;8.018;2023-09-12T01:24:04;10.90;;;5.97;;
6987;SDS011;3534;49.960;8.018;2023-09-12T01:27:10;15.10;;;6.70;;
6987;SDS011;3534;49.960;8.018;2023-09-12T01:29:44;12.17;;;6.67;;
6987;SDS011;3534;49.960;8.018;2023-09-12T01:32:13;13.63;;;6.50;;
6987;SDS011;3534;49.960;8.018;2023-09-12T01:34:40;23.10;;;7.93;;
6987;SDS011;3534;49.960;8.018;2023-09-12T01:37:07;11.50;;;6.80;;
6987;SDS011;3534;49.960;8.018;2023-09-12T01:39:34;14.63;;;6.33;;
6987;SDS011;3534;49.960;8.018;2023-09-12T01:42:00;18.60;;;6.43;;
6987;SDS011;3534;49.960;8.018;2023-09-12T01:44:29;16.70;;;7.03;;
6987;SDS011;3534;49.960;8.018;2023-09-12T01:46:57;14.73;;;7.30;;
6987;SDS011;3534;49.960;8.018;2023-09-12T01:49:28;10.33;;;6.80;;
6987;SDS011;3534;49.960;8.018;2023-09-12T01:51:56;15.70;;;7.33;;
6987;SDS011;3534;49.960;8.018;2023-09-12T01:54:24;13.80;;;6.80;;
6987;SDS011;3534;49.960;8.018;2023-09-12T01:56:53;13.03;;;7.27;;
6987;SDS011;3534;49.960;8.018;2023-09-12T01:59:22;17.80;;;7.17;;
6987;SDS011;3534;49.960;8.018;2023-09-12T02:01:51;16.50;;;7.33;;
6987;SDS011;3534;49.960;8.018;2023-09-12T02:04:17;17.33;;;6.40;;
6987;SDS011;3534;49.960;8.018;2023-09-12T02:06:44;21.40;;;8.00;;
6987;SDS011;3534;49.960;8.018;2023-09-12T02:09:11;15.27;;;7.50;;
6987;SDS011;3534;49.960;8.018;2023-09-12T02:11:37;14.10;;;7.00;;
6987;SDS011;3534;49.960;8.018;2023-09-12T02:14:04;17.43;;;7.20;;
6987;SDS011;3534;49.960;8.018;2023-09-12T02:16:31;13.90;;;7.03;;
6987;SDS011;3534;49.960;8.018;2023-09-12T02:18:59;12.07;;;6.50;;
6987;SDS011;3534;49.960;8.018;2023-09-12T02:21:26;16.57;;;7.73;;
6987;SDS011;3534;49.960;8.018;2023-09-12T02:23:52;13.83;;;6.90;;
6987;SDS011;3534;49.960;8.018;2023-09-12T02:26:19;16.20;;;7.40;;
6987;SDS011;3534;49.960;8.018;2023-09-12T02:28:46;31.87;;;8.10;;
6987;SDS011;3534;49.960;8.018;2023-09-12T02:31:12;13.40;;;7.40;;
6987;SDS011;3534;49.960;8.018;2023-09-12T02:33:39;17.13;;;8.40;;
6987;SDS011;3534;49.960;8.018;2023-09-12T02:36:08;14.67;;;8.13;;
6987;SDS011;3534;49.960;8.018;2023-09-12T02:38:34;16.17;;;8.20;;
6987;SDS011;3534;49.960;8.018;2023-09-12T02:41:01;14.30;;;8.63;;
6987;SDS011;3534;49.960;8.018;2023-09-12T02:43:28;18.47;;;8.03;;
6987;SDS011;3534;49.960;8.018;2023-09-12T02:45:55;18.13;;;8.07;;
6987;SDS011;3534;49.960;8.018;2023-09-12T02:48:22;16.40;;;7.60;;
6987;SDS011;3534;49.960;8.018;2023-09-12T02:50:48;10.77;;;7.60;;
6987;SDS011;3534;49.960;8.018;2023-09-12T02:53:16;16.63;;;7.20;;
6987;SDS011;3534;49.960;8.018;2023-09-12T02:55:43;16.30;;;7.30;;
6987;SDS011;3534;49.960;8.018;2023-09-12T02:58:09;13.30;;;7.30;;
6987;SDS011;3534;49.960;8.018;2023-09-12T03:00:37;17.47;;;7.27;;
6987;SDS011;3534;49.960;8.018;2023-09-12T03:03:05;13.73;;;7.57;;
6987;SDS011;3534;49.960;8.018;2023-09-12T03:05:31;16.20;;;7.70;;
6987;SDS011;3534;49.960;8.018;2023-09-12T03:07:58;21.33;;;7.30;;
6987;SDS011;3534;49.960;8.018;2023-09-12T03:10:26;14.23;;;7.13;;
6987;SDS011;3534;49.960;8.018;2023-09-12T03:12:53;21.10;;;6.50;;
6987;SDS011;3534;49.960;8.018;2023-09-12T03:15:19;15.50;;;8.30;;
6987;SDS011;3534;49.960;8.018;2023-09-12T03:17:46;16.87;;;7.97;;
6987;SDS011;3534;49.960;8.018;2023-09-12T03:20:13;16.63;;;7.40;;
6987;SDS011;3534;49.960;8.018;2023-09-12T03:22:39;30.43;;;11.57;;
6987;SDS011;3534;49.960;8.018;2023-09-12T03:25:06;11.23;;;8.00;;
6987;SDS011;3534;49.960;8.018;2023-09-12T03:27:35;15.97;;;8.10;;
6987;SDS011;3534;49.960;8.018;2023-09-12T03:30:01;13.97;;;7.30;;
6987;SDS011;3534;49.960;8.018;2023-09-12T03:32:29;12.70;;;7.50;;
6987;SDS011;3534;49.960;8.018;2023-09-12T03:34:56;18.40;;;7.77;;
6987;SDS011;3534;49.960;8.018;2023-09-12T03:37:22;12.00;;;7.10;;
6987;SDS011;3534;49.960;8.018;2023-09-12T03:39:52;14.13;;;6.90;;
6987;SDS011;3534;49.960;8.018;2023-09-12T03:42:18;21.73;;;8.00;;
6987;SDS011;3534;49.960;8.018;2023-09-12T03:44:46;15.03;;;8.20;;
6987;SDS011;3534;49.960;8.018;2023-09-12T03:47:13;18.33;;;6.70;;
6987;SDS011;3534;49.960;8.018;2023-09-12T03:49:40;21.83;;;8.57;;
6987;SDS011;3534;49.960;8.018;2023-09-12T03:52:06;17.37;;;7.67;;
6987;SDS011;3534;49.960;8.018;2023-09-12T03:54:33;14.80;;;8.90;;
6987;SDS011;3534;49.960;8.018;2023-09-12T03:57:00;11.33;;;7.50;;
6987;SDS011;3534;49.960;8.018;2023-09-12T03:59:26;12.53;;;7.77;;
6987;SDS011;3534;49.960;8.018;2023-09-12T04:01:54;14.60;;;8.40;;
6987;SDS011;3534;49.960;8.018;2023-09-12T04:04:21;23.57;;;8.07;;
6987;SDS011;3534;49.960;8.018;2023-09-12T04:06:48;16.43;;;8.60;;
6987;SDS011;3534;49.960;8.018;2023-09-12T04:09:14;15.47;;;8.50;;
6987;SDS011;3534;49.960;8.018;2023-09-12T04:11:42;14.60;;;7.50;;
6987;SDS011;3534;49.960;8.018;2023-09-12T04:14:08;13.23;;;8.03;;
6987;SDS011;3534;49.960;8.018;2023-09-12T04:16:35;20.23;;;8.07;;
6987;SDS011;3534;49.960;8.018;2023-09-12T04:19:04;19.57;;;8.10;;
6987;SDS011;3534;49.960;8.018;2023-09-12T04:21:30;15.97;;;8.20;;
6987;SDS011;3534;49.960;8.018;2023-09-12T04:23:57;12.93;;;8.30;;
6987;SDS011;3534;49.960;8.018;2023-09-12T04:26:24;23.20;;;8.30;;
6987;SDS011;3534;49.960;8.018;2023-09-12T04:28:50;13.73;;;7.60;;
6987;SDS011;3534;49.960;8.018;2023-09-12T04:31:17;17.80;;;8.40;;
6987;SDS011;3534;49.960;8.018;2023-09-12T04:33:44;22.03;;;8.70;;
6987;SDS011;3534;49.960;8.018;2023-09-12T04:36:12;16.47;;;8.33;;
6987;SDS011;3534;49.960;8.018;2023-09-12T04:38:38;16.93;;;7.60;;
6987;SDS011;3534;49.960;8.018;2023-09-12T04:41:05;16.70;;;7.73;;
6987;SDS011;3534;49.960;8.018;2023-09-12T04:43:32;18.20;;;8.00;;
6987;SDS011;3534;49.960;8.018;2023-09-12T04:45:59;13.63;;;7.40;;
6987;SDS011;3534;49.960;8.018;2023-09-12T04:48:26;22.50;;;7.97;;
6987;SDS011;3534;49.960;8.018;2023-09-12T04:50:52;19.03;;;8.87;;
6987;SDS011;3534;49.960;8.018;2023-09-12T04:53:20;17.70;;;8.67;;
6987;SDS011;3534;49.960;8.018;2023-09-12T04:55:47;14.50;;;7.40;;
6987;SDS011;3534;49.960;8.018;2023-09-12T04:58:14;17.93;;;8.80;;
6987;SDS011;3534;49.960;8.018;2023-09-12T05:00:41;20.80;;;8.23;;
6987;SDS011;3534;49.960;8.018;2023-09-12T05:03:07;18.23;;;7.97;;
6987;SDS011;3534;49.960;8.018;2023-09-12T05:05:34;20.63;;;7.93;;
6987;SDS011;3534;49.960;8.018;2023-09-12T05:08:02;17.13;;;7.63;;
6987;SDS011;3534;49.960;8.018;2023-09-12T05:10:31;13.97;;;8.37;;
6987;SDS011;3534;49.960;8.018;2023-09-12T05:12:57;18.30;;;7.30;;
6987;SDS011;3534;49.960;8.018;2023-09-12T05:15:24;13.20;;;7.57;;
6987;SDS011;3534;49.960;8.018;2023-09-12T05:17:51;15.80;;;8.30;;
6987;SDS011;3534;49.960;8.018;2023-09-12T05:20:17;13.90;;;7.50;;
6987;SDS011;3534;49.960;8.018;2023-09-12T05:22:44;18.03;;;8.00;;
6987;SDS011;3534;49.960;8.018;2023-09-12T05:25:11;15.40;;;7.23;;
6987;SDS011;3534;49.960;8.018;2023-09-12T05:27:39;16.70;;;7.87;;
6987;SDS011;3534;49.960;8.018;2023-09-12T05:30:06;12.20;;;8.33;;
6987;SDS011;3534;49.960;8.018;2023-09-12T05:32:33;14.47;;;8.23;;
6987;SDS011;3534;49.960;8.018;2023-09-12T05:35:01;17.97;;;7.97;;
6987;SDS011;3534;49.960;8.018;2023-09-12T05:37:28;21.53;;;8.93;;
6987;SDS011;3534;49.960;8.018;2023-09-12T05:39:55;11.37;;;7.60;;
6987;SDS011;3534;49.960;8.018;2023-09-12T05:42:21;15.27;;;8.50;;
6987;SDS011;3534;49.960;8.018;2023-09-12T05:44:49;10.10;;;8.03;;
6987;SDS011;3534;49.960;8.018;2023-09-12T05:47:18;15.17;;;7.70;;
6987;SDS011;3534;49.960;8.018;2023-09-12T05:49:45;18.47;;;8.67;;
6987;SDS011;3534;49.960;8.018;2023-09-12T05:52:12;14.00;;;7.70;;
6987;SDS011;3534;49.960;8.018;2023-09-12T05:54:39;17.73;;;8.20;;
6987;SDS011;3534;49.960;8.018;2023-09-12T05:57:06;19.57;;;7.97;;
6987;SDS011;3534;49.960;8.018;2023-09-12T05:59:35;22.47;;;8.97;;
6987;SDS011;3534;49.960;8.018;2023-09-12T06:02:04;23.67;;;9.47;;
6987;SDS011;3534;49.960;8.018;2023-09-12T06:04:33;20.93;;;8.90;;
6987;SDS011;3534;49.960;8.018;2023-09-12T06:07:00;16.40;;;9.63;;
6987;SDS011;3534;49.960;8.018;2023-09-12T06:09:28;19.40;;;8.30;;
6987;SDS011;3534;49.960;8.018;2023-09-12T06:11:54;19.83;;;9.17;;
6987;SDS011;3534;49.960;8.018;2023-09-12T06:14:21;19.93;;;9.60;;
6987;SDS011;3534;49.960;8.018;2023-09-12T06:16:48;14.53;;;9.10;;
6987;SDS011;3534;49.960;8.018;2023-09-12T06:19:16;17.93;;;9.00;;
6987;SDS011;3534;49.960;8.018;2023-09-12T06:21:44;22.40;;;10.53;;
6987;SDS011;3534;49.960;8.018;2023-09-12T06:24:12;21.70;;;9.73;;
6987;SDS011;3534;49.960;8.018;2023-09-12T06:26:39;25.13;;;10.53;;
6987;SDS011;3534;49.960;8.018;2023-09-12T06:29:06;29.33;;;9.90;;
6987;SDS011;3534;49.960;8.018;2023-09-12T06:31:33;17.20;;;9.87;;
6987;SDS011;3534;49.960;8.018;2023-09-12T06:34:00;23.47;;;8.47;;
6987;SDS011;3534;49.960;8.018;2023-09-12T06:36:29;16.30;;;8.30;;
6987;SDS011;3534;49.960;8.018;2023-09-12T06:38:55;14.53;;;7.57;;
6987;SDS011;3534;49.960;8.018;2023-09-12T06:41:22;22.23;;;8.73;;
6987;SDS011;3534;49.960;8.018;2023-09-12T06:43:49;20.30;;;8.93;;
6987;SDS011;3534;49.960;8.018;2023-09-12T06:46:15;16.07;;;9.30;;
6987;SDS011;3534;49.960;8.018;2023-09-12T06:48:42;19.50;;;9.40;;
6987;SDS011;3534;49.960;8.018;2023-09-12T06:51:10;19.13;;;9.30;;
6987;SDS011;3534;49.960;8.018;2023-09-12T06:53:38;17.53;;;9.73;;
6987;SDS011;3534;49.960;8.018;2023-09-12T06:56:05;26.73;;;10.40;;
6987;SDS011;3534;49.960;8.018;2023-09-12T07:01:02;20.70;;;9.50;;
6987;SDS011;3534;49.960;8.018;2023-09-12T07:03:29;12.80;;;9.23;;
6987;SDS011;3534;49.960;8.018;2023-09-12T07:05:56;19.70;;;9.57;;
6987;SDS011;3534;49.960;8.018;2023-09-12T07:08:22;19.10;;;9.47;;
6987;SDS011;3534;49.960;8.018;2023-09-12T07:10:50;19.37;;;8.33;;
6987;SDS011;3534;49.960;8.018;2023-09-12T07:13:19;23.80;;;9.53;;
6987;SDS011;3534;49.960;8.018;2023-09-12T07:15:46;16.30;;;9.23;;
6987;SDS011;3534;49.960;8.018;2023-09-12T07:18:13;14.60;;;8.63;;
6987;SDS011;3534;49.960;8.018;2023-09-12T07:20:41;17.50;;;9.77;;
6987;SDS011;3534;49.960;8.018;2023-09-12T07:23:07;16.17;;;9.20;;
6987;SDS011;3534;49.960;8.018;2023-09-12T07:25:36;20.97;;;8.53;;
6987;SDS011;3534;49.960;8.018;2023-09-12T07:28:06;17.70;;;9.43;;
6987;SDS011;3534;49.960;8.018;2023-09-12T07:30:33;16.70;;;8.80;;
6987;SDS011;3534;49.960;8.018;2023-09-12T07:32:59;11.83;;;8.90;;
6987;SDS011;3534;49.960;8.018;2023-09-12T07:35:26;20.30;;;8.17;;
6987;SDS011;3534;49.960;8.018;2023-09-12T07:37:53;19.53;;;9.40;;
6987;SDS011;3534;49.960;8.018;2023-09-12T07:40:19;27.43;;;8.60;;
6987;SDS011;3534;49.960;8.018;2023-09-12T07:42:46;16.67;;;9.50;;
6987;SDS011;3534;49.960;8.018;2023-09-12T07:45:14;16.73;;;10.10;;
6987;SDS011;3534;49.960;8.018;2023-09-12T07:47:41;25.33;;;9.40;;
6987;SDS011;3534;49.960;8.018;2023-09-12T07:50:08;22.83;;;10.10;;
6987;SDS011;3534;49.960;8.018;2023-09-12T07:52:35;29.37;;;9.53;;
6987;SDS011;3534;49.960;8.018;2023-09-12T07:55:02;17.87;;;7.90;;
6987;SDS011;3534;49.960;8.018;2023-09-12T07:57:29;16.23;;;8.33;;
6987;SDS011;3534;49.960;8.018;2023-09-12T07:59:56;24.40;;;9.43;;
6987;SDS011;3534;49.960;8.018;2023-09-12T08:02:24;23.83;;;9.37;;
6987;SDS011;3534;49.960;8.018;2023-09-12T08:04:51;19.67;;;9.50;;
6987;SDS011;3534;49.960;8.018;2023-09-12T08:07:18;19.23;;;9.70;;
6987;SDS011;3534;49.960;8.018;2023-09-12T08:09:50;19.33;;;10.17;;
6987;SDS011;3534;49.960;8.018;2023-09-12T08:12:18;20.87;;;9.20;;
6987;SDS011;3534;49.960;8.018;2023-09-12T08:14:46;12.87;;;8.47;;
6987;SDS011;3534;49.960;8.018;2023-09-12T08:17:12;21.03;;;9.47;;
6987;SDS011;3534;49.960;8.018;2023-09-12T08:19:41;18.93;;;9.13;;
6987;SDS011;3534;49.960;8.018;2023-09-12T08:22:08;17.80;;;9.10;;
6987;SDS011;3534;49.960;8.018;2023-09-12T08:24:36;24.17;;;12.90;;
6987;SDS011;3534;49.960;8.018;2023-09-12T08:27:04;24.00;;;10.30;;
6987;SDS011;3534;49.960;8.018;2023-09-12T08:29:31;26.13;;;10.33;;
6987;SDS011;3534;49.960;8.018;2023-09-12T08:31:58;31.00;;;11.33;;
6987;SDS011;3534;49.960;8.018;2023-09-12T08:34:25;21.27;;;9.43;;
6987;SDS011;3534;49.960;8.018;2023-09-12T08:36:54;19.43;;;9.93;;
6987;SDS011;3534;49.960;8.018;2023-09-12T08:39:22;18.10;;;9.13;;
6987;SDS011;3534;49.960;8.018;2023-09-12T08:41:50;25.97;;;9.40;;
6987;SDS011;3534;49.960;8.018;2023-09-12T08:44:17;17.03;;;9.60;;
6987;SDS011;3534;49.960;8.018;2023-09-12T08:46:44;22.53;;;10.20;;
6987;SDS011;3534;49.960;8.018;2023-09-12T08:49:11;20.63;;;9.00;;
6987;SDS011;3534;49.960;8.018;2023-09-12T08:51:38;23.30;;;10.40;;
6987;SDS011;3534;49.960;8.018;2023-09-12T08:54:07;26.97;;;10.20;;
6987;SDS011;3534;49.960;8.018;2023-09-12T08:56:35;19.40;;;9.37;;
6987;SDS011;3534;49.960;8.018;2023-09-12T08:59:05;25.43;;;9.83;;
6987;SDS011;3534;49.960;8.018;2023-09-12T09:01:32;16.53;;;9.10;;
6987;SDS011;3534;49.960;8.018;2023-09-12T09:04:00;17.47;;;9.20;;
6987;SDS011;3534;49.960;8.018;2023-09-12T09:06:28;21.63;;;9.57;;
6987;SDS011;3534;49.960;8.018;2023-09-12T09:08:57;20.10;;;8.80;;
6987;SDS011;3534;49.960;8.018;2023-09-12T09:11:26;17.77;;;9.80;;
6987;SDS011;3534;49.960;8.018;2023-09-12T09:13:53;20.10;;;9.47;;
6987;SDS011;3534;49.960;8.018;2023-09-12T09:16:21;22.57;;;8.70;;
6987;SDS011;3534;49.960;8.018;2023-09-12T09:18:49;16.57;;;9.63;;
6987;SDS011;3534;49.960;8.018;2023-09-12T09:21:20;22.17;;;9.50;;
6987;SDS011;3534;49.960;8.018;2023-09-12T09:23:49;18.97;;;8.80;;
6987;SDS011;3534;49.960;8.018;2023-09-12T09:26:16;19.67;;;8.43;;
6987;SDS011;3534;49.960;8.018;2023-09-12T09:28:45;11.93;;;7.63;;
6987;SDS011;3534;49.960;8.018;2023-09-12T09:31:12;14.77;;;9.20;;
6987;SDS011;3534;49.960;8.018;2023-09-12T09:33:39;22.23;;;9.27;;
6987;SDS011;3534;49.960;8.018;2023-09-12T09:36:10;17.57;;;9.10;;
6987;SDS011;3534;49.960;8.018;2023-09-12T09:38:37;22.83;;;8.50;;
6987;SDS011;3534;49.960;8.018;2023-09-12T09:41:04;24.00;;;8.83;;
6987;SDS011;3534;49.960;8.018;2023-09-12T09:43:32;17.37;;;8.47;;
6987;SDS011;3534;49.960;8.018;2023-09-12T09:46:00;20.83;;;8.70;;
6987;SDS011;3534;49.960;8.018;2023-09-12T09:48:28;20.27;;;9.03;;
6987;SDS011;3534;49.960;8.018;2023-09-12T09:50:59;22.13;;;8.20;;
6987;SDS011;3534;49.960;8.018;2023-09-12T09:53:27;22.70;;;8.90;;
6987;SDS011;3534;49.960;8.018;2023-09-12T09:56:06;17.57;;;8.53;;
6987;SDS011;3534;49.960;8.018;2023-09-12T09:58:34;16.57;;;8.73;;
6987;SDS011;3534;49.960;8.018;2023-09-12T10:01:02;20.67;;;9.07;;
6987;SDS011;3534;49.960;8.018;2023-09-12T10:03:32;15.97;;;8.20;;
6987;SDS011;3534;49.960;8.018;2023-09-12T10:06:02;18.97;;;8.17;;
6987;SDS011;3534;49.960;8.018;2023-09-12T10:08:31;24.03;;;9.33;;
6987;SDS011;3534;49.960;8.018;2023-09-12T10:11:00;16.13;;;8.70;;
6987;SDS011;3534;49.960;8.018;2023-09-12T10:13:27;13.80;;;7.67;;
6987;SDS011;3534;49.960;8.018;2023-09-12T10:15:58;19.70;;;8.70;;
6987;SDS011;3534;49.960;8.018;2023-09-12T10:18:29;17.27;;;8.50;;
6987;SDS011;3534;49.960;8.018;2023-09-12T10:21:03;25.53;;;8.87;;
6987;SDS011;3534;49.960;8.018;2023-09-12T10:23:37;18.70;;;8.50;;
6987;SDS011;3534;49.960;8.018;2023-09-12T10:26:09;18.67;;;8.03;;
6987;SDS011;3534;49.960;8.018;2023-09-12T10:28:37;20.37;;;8.50;;
6987;SDS011;3534;49.960;8.018;2023-09-12T10:31:06;18.80;;;9.47;;
6987;SDS011;3534;49.960;8.018;2023-09-12T10:33:35;32.33;;;9.30;;
6987;SDS011;3534;49.960;8.018;2023-09-12T10:36:03;21.20;;;9.30;;
6987;SDS011;3534;49.960;8.018;2023-09-12T10:38:32;26.83;;;9.30;;
6987;SDS011;3534;49.960;8.018;2023-09-12T10:40:59;16.27;;;8.20;;
6987;SDS011;3534;49.960;8.018;2023-09-12T10:43:26;22.40;;;9.00;;
6987;SDS011;3534;49.960;8.018;2023-09-12T10:45:54;17.67;;;8.33;;
6987;SDS011;3534;49.960;8.018;2023-09-12T10:48:24;18.83;;;8.70;;
6987;SDS011;3534;49.960;8.018;2023-09-12T10:50:52;21.27;;;9.20;;
6987;SDS011;3534;49.960;8.018;2023-09-12T10:53:21;18.10;;;7.50;;
6987;SDS011;3534;49.960;8.018;2023-09-12T10:55:57;14.20;;;8.07;;
6987;SDS011;3534;49.960;8.018;2023-09-12T10:58:25;16.20;;;8.10;;
6987;SDS011;3534;49.960;8.018;2023-09-12T11:03:52;18.43;;;8.00;;
6987;SDS011;3534;49.960;8.018;2023-09-12T11:06:21;19.60;;;8.50;;
6987;SDS011;3534;49.960;8.018;2023-09-12T11:11:45;21.80;;;8.70;;
6987;SDS011;3534;49.960;8.018;2023-09-12T11:14:12;12.50;;;7.97;;
6987;SDS011;3534;49.960;8.018;2023-09-12T11:16:41;16.70;;;9.00;;
6987;SDS011;3534;49.960;8.018;2023-09-12T11:19:15;18.90;;;8.70;;
6987;SDS011;3534;49.960;8.018;2023-09-12T11:21:45;15.40;;;8.10;;
6987;SDS011;3534;49.960;8.018;2023-09-12T11:24:13;15.27;;;8.30;;
6987;SDS011;3534;49.960;8.018;2023-09-12T11:26:56;15.53;;;8.00;;
6987;SDS011;3534;49.960;8.018;2023-09-12T11:29:27;20.27;;;8.53;;
6987;SDS011;3534;49.960;8.018;2023-09-12T11:31:56;12.37;;;7.40;;
6987;SDS011;3534;49.960;8.018;2023-09-12T11:34:25;18.13;;;7.70;;
6987;SDS011;3534;49.960;8.018;2023-09-12T11:36:55;19.80;;;8.30;;
6987;SDS011;3534;49.960;8.018;2023-09-12T11:39:25;13.20;;;7.63;;
6987;SDS011;3534;49.960;8.018;2023-09-12T11:41:55;16.03;;;8.40;;
6987;SDS011;3534;49.960;8.018;2023-09-12T11:44:22;13.00;;;8.00;;
6987;SDS011;3534;49.960;8.018;2023-09-12T11:46:50;12.20;;;7.50;;
6987;SDS011;3534;49.960;8.018;2023-09-12T11:49:17;18.10;;;7.97;;
6987;SDS011;3534;49.960;8.018;2023-09-12T11:51:46;13.13;;;8.33;;
6987;SDS011;3534;49.960;8.018;2023-09-12T11:54:15;16.13;;;7.47;;
6987;SDS011;3534;49.960;8.018;2023-09-12T11:56:43;16.00;;;7.67;;
6987;SDS011;3534;49.960;8.018;2023-09-12T11:59:10;13.50;;;7.60;;
6987;SDS011;3534;49.960;8.018;2023-09-12T12:01:37;13.50;;;7.43;;
6987;SDS011;3534;49.960;8.018;2023-09-12T12:04:04;9.80;;;6.97;;
6987;SDS011;3534;49.960;8.018;2023-09-12T12:06:32;14.17;;;7.50;;
6987;SDS011;3534;49.960;8.018;2023-09-12T12:09:00;9.73;;;6.60;;
6987;SDS011;3534;49.960;8.018;2023-09-12T12:11:30;18.33;;;7.43;;
6987;SDS011;3534;49.960;8.018;2023-09-12T12:13:58;11.20;;;7.47;;
6987;SDS011;3534;49.960;8.018;2023-09-12T12:16:34;12.55;;;6.75;;
6987;SDS011;3534;49.960;8.018;2023-09-12T12:19:01;10.88;;;7.05;;
6987;SDS011;3534;49.960;8.018;2023-09-12T12:21:28;14.77;;;7.00;;
6987;SDS011;3534;49.960;8.018;2023-09-12T12:23:59;19.90;;;7.97;;
6987;SDS011;3534;49.960;8.018;2023-09-12T12:26:26;15.68;;;8.23;;
6987;SDS011;3534;49.960;8.018;2023-09-12T12:28:54;17.27;;;7.18;;
6987;SDS011;3534;49.960;8.018;2023-09-12T12:31:21;15.20;;;6.53;;
6987;SDS011;3534;49.960;8.018;2023-09-12T12:33:49;14.48;;;7.32;;
6987;SDS011;3534;49.960;8.018;2023-09-12T12:36:16;19.67;;;7.90;;
6987;SDS011;3534;49.960;8.018;2023-09-12T12:38:43;12.27;;;7.55;;
6987;SDS011;3534;49.960;8.018;2023-09-12T12:41:12;12.55;;;7.35;;
6987;SDS011;3534;49.960;8.018;2023-09-12T12:43:40;18.10;;;7.80;;
6987;SDS011;3534;49.960;8.018;2023-09-12T12:46:11;15.38;;;7.15;;
6987;SDS011;3534;49.960;8.018;2023-09-12T12:48:38;12.75;;;6.82;;
6987;SDS011;3534;49.960;8.018;2023-09-12T12:51:13;16.80;;;7.03;;
6987;SDS011;3534;49.960;8.018;2023-09-12T12:53:43;13.95;;;6.88;;
6987;SDS011;3534;49.960;8.018;2023-09-12T12:56:11;16.58;;;5.90;;
6987;SDS011;3534;49.960;8.018;2023-09-12T12:58:44;14.15;;;6.60;;
6987;SDS011;3534;49.960;8.018;2023-09-12T13:01:13;13.75;;;6.95;;
6987;SDS011;3534;49.960;8.018;2023-09-12T13:03:40;14.77;;;6.72;;
6987;SDS011;3534;49.960;8.018;2023-09-12T13:06:07;16.10;;;7.20;;
6987;SDS011;3534;49.960;8.018;2023-09-12T13:08:38;14.75;;;6.03;;
6987;SDS011;3534;49.960;8.018;2023-09-12T13:11:06;21.10;;;7.32;;
6987;SDS011;3534;49.960;8.018;2023-09-12T13:13:33;13.52;;;7.28;;
6987;SDS011;3534;49.960;8.018;2023-09-12T13:15:59;8.35;;;6.47;;
6987;SDS011;3534;49.960;8.018;2023-09-12T13:18:28;18.35;;;7.30;;
6987;SDS011;3534;49.960;8.018;2023-09-12T13:20:54;18.17;;;7.30;;
6987;SDS011;3534;49.960;8.018;2023-09-12T13:23:21;11.90;;;6.30;;
6987;SDS011;3534;49.960;8.018;2023-09-12T13:25:49;13.20;;;6.45;;
6987;SDS011;3534;49.960;8.018;2023-09-12T13:28:16;13.85;;;6.78;;
6987;SDS011;3534;49.960;8.018;2023-09-12T13:30:42;10.98;;;7.93;;
6987;SDS011;3534;49.960;8.018;2023-09-12T13:33:10;15.75;;;7.03;;
6987;SDS011;3534;49.960;8.018;2023-09-12T13:35:38;9.50;;;6.45;;
6987;SDS011;3534;49.960;8.018;2023-09-12T13:38:05;10.77;;;6.53;;
6987;SDS011;3534;49.960;8.018;2023-09-12T13:40:35;16.83;;;6.72;;
6987;SDS011;3534;49.960;8.018;2023-09-12T13:43:03;25.80;;;6.70;;
6987;SDS011;3534;49.960;8.018;2023-09-12T13:45:29;17.42;;;7.32;;
6987;SDS011;3534;49.960;8.018;2023-09-12T13:47:57;11.80;;;6.60;;
6987;SDS011;3534;49.960;8.018;2023-09-12T13:50:24;13.95;;;7.15;;
6987;SDS011;3534;49.960;8.018;2023-09-12T13:52:52;18.95;;;6.47;;
6987;SDS011;3534;49.960;8.018;2023-09-12T13:55:19;12.40;;;6.75;;
6987;SDS011;3534;49.960;8.018;2023-09-12T13:57:46;9.25;;;6.80;;
6987;SDS011;3534;49.960;8.018;2023-09-12T14:00:13;14.25;;;6.25;;
6987;SDS011;3534;49.960;8.018;2023-09-12T14:02:40;21.67;;;7.28;;
6987;SDS011;3534;49.960;8.018;2023-09-12T14:05:07;9.93;;;6.40;;
6987;SDS011;3534;49.960;8.018;2023-09-12T14:07:35;8.40;;;5.72;;
6987;SDS011;3534;49.960;8.018;2023-09-12T14:10:04;14.82;;;6.97;;
6987;SDS011;3534;49.960;8.018;2023-09-12T14:12:32;13.18;;;6.45;;
6987;SDS011;3534;49.960;8.018;2023-09-12T14:14:58;13.25;;;7.30;;
6987;SDS011;3534;49.960;8.018;2023-09-12T14:17:25;8.13;;;6.63;;
6987;SDS011;3534;49.960;8.018;2023-09-12T14:19:53;8.93;;;6.28;;
6987;SDS011;3534;49.960;8.018;2023-09-12T14:22:21;12.95;;;6.95;;
6987;SDS011;3534;49.960;8.018;2023-09-12T14:24:47;15.00;;;7.47;;
6987;SDS011;3534;49.960;8.018;2023-09-12T14:27:15;13.05;;;6.95;;
6987;SDS011;3534;49.960;8.018;2023-09-12T14:29:42;10.90;;;6.43;;
6987;SDS011;3534;49.960;8.018;2023-09-12T14:32:10;15.65;;;5.88;;
6987;SDS011;3534;49.960;8.018;2023-09-12T14:34:37;12.27;;;6.80;;
6987;SDS011;3534;49.960;8.018;2023-09-12T14:37:04;11.85;;;5.88;;
6987;SDS011;3534;49.960;8.018;2023-09-12T14:39:31;8.00;;;6.10;;
6987;SDS011;3534;49.960;8.018;2023-09-12T14:41:57;14.90;;;7.63;;
6987;SDS011;3534;49.960;8.018;2023-09-12T14:44:27;20.60;;;6.65;;
6987;SDS011;3534;49.960;8.018;2023-09-12T14:46:57;11.05;;;7.60;;
6987;SDS011;3534;49.960;8.018;2023-09-12T14:49:24;17.63;;;6.95;;
6987;SDS011;3534;49.960;8.018;2023-09-12T14:51:51;12.10;;;7.72;;
6987;SDS011;3534;49.960;8.018;2023-09-12T14:54:18;13.07;;;9.05;;
6987;SDS011;3534;49.960;8.018;2023-09-12T14:56:47;12.13;;;7.75;;
6987;SDS011;3534;49.960;8.018;2023-09-12T14:59:14;15.05;;;8.55;;
6987;SDS011;3534;49.960;8.018;2023-09-12T15:01:44;23.02;;;8.50;;
6987;SDS011;3534;49.960;8.018;2023-09-12T15:04:10;10.40;;;7.93;;
6987;SDS011;3534;49.960;8.018;2023-09-12T15:06:37;11.18;;;7.70;;
6987;SDS011;3534;49.960;8.018;2023-09-12T15:09:04;8.38;;;7.50;;
6987;SDS011;3534;49.960;8.018;2023-09-12T15:11:31;14.18;;;7.05;;
6987;SDS011;3534;49.960;8.018;2023-09-12T15:13:58;17.52;;;7.53;;